Aviation Digital Data Service (ADDS)

Output produced by METARs form (0840 UTC 23 October 2014)
found at http://aviationweather.gov/adds/metars/
 
KISP 230830Z 2309/2406 01022G31KT P6SM OVC020 
     TEMPO 2309/2311 4SM -RA BR BKN012 
     FM231100 36021G30KT 6SM BR VCSH BKN015 
     FM231400 34019G29KT P6SM VCSH BKN015 
     FM231900 34017G27KT P6SM BKN025 OVC035 
     FM240000 33015G25KT P6SM BKN040 BKN080 
     FM240400 33013G22KT P6SM BKN050 BKN080